Time;durP1;ratioP1;P1;durP2;ratioP2;P2;SDS_P1;SDS_P2;PMS_P1;PMS_P2;Temp;Humidity;BMP_temperature;BMP_pressure;BME280_temperature;BME280_humidity;BME280_pressure;Samples;Min_cycle;Max_cycle;Signal;HPM_P1;HPM_P2
2022/08/31 00:03:53;;;;;;;2.63;1.80;;;;;;;;;;4994786;28;20069;-84
2022/08/31 00:06:20;;;;;;;2.33;1.70;;;;;;;;;;4995854;28;20042;-84
2022/08/31 00:08:46;;;;;;;1.70;1.50;;;;;;;;;;5008224;28;20124;-84
2022/08/31 00:11:15;;;;;;;1.50;1.23;;;;;;;;;;5015377;28;20041;-84
2022/08/31 00:13:42;;;;;;;1.42;1.33;;;;;;;;;;5015507;28;20147;-84
2022/08/31 00:16:11;;;;;;;1.60;1.50;;;;;;;;;;5014231;28;20050;-84
2022/08/31 00:18:38;;;;;;;1.65;1.50;;;;;;;;;;5015022;28;20096;-84
2022/08/31 00:21:05;;;;;;;4.45;1.55;;;;;;;;;;5013752;28;20042;-84
2022/08/31 00:23:34;;;;;;;2.17;1.40;;;;;;;;;;4998783;28;20096;-84
2022/08/31 00:26:00;;;;;;;2.80;1.60;;;;;;;;;;4991535;28;20086;-84
2022/08/31 00:28:26;;;;;;;2.58;1.40;;;;;;;;;;4992929;28;20468;-84
2022/08/31 00:30:52;;;;;;;1.30;1.20;;;;;;;;;;4993593;28;20491;-84
2022/08/31 00:33:18;;;;;;;1.92;1.40;;;;;;;;;;4978150;28;20480;-84
2022/08/31 00:35:44;;;;;;;1.80;1.55;;;;;;;;;;4976250;28;20081;-84
2022/08/31 00:38:11;;;;;;;1.85;1.20;;;;;;;;;;4979312;28;20538;-84
2022/08/31 00:40:37;;;;;;;2.65;1.48;;;;;;;;;;4974808;28;20042;-84
2022/08/31 00:43:04;;;;;;;1.58;1.48;;;;;;;;;;4977605;28;20561;-83
2022/08/31 00:45:30;;;;;;;1.70;1.45;;;;;;;;;;4977617;28;20495;-84
2022/08/31 00:47:56;;;;;;;3.92;1.55;;;;;;;;;;4994855;28;20077;-84
2022/08/31 00:50:24;;;;;;;2.22;1.48;;;;;;;;;;4988718;28;20488;-84
2022/08/31 00:52:57;;;;;;;3.35;1.58;;;;;;;;;;4989457;28;20042;-84
2022/08/31 00:55:34;;;;;;;2.88;1.70;;;;;;;;;;4992578;28;20045;-83
2022/08/31 00:58:02;;;;;;;1.88;1.30;;;;;;;;;;4988805;28;20491;-84
2022/08/31 01:00:28;;;;;;;2.58;1.50;;;;;;;;;;4994379;28;20419;-84
2022/08/31 01:03:00;;;;;;;2.13;1.48;;;;;;;;;;4975376;28;20404;-84
2022/08/31 01:05:27;;;;;;;1.20;1.10;;;;;;;;;;4981171;28;20104;-83
2022/08/31 01:07:53;;;;;;;1.45;1.38;;;;;;;;;;4976943;28;20046;-83
2022/08/31 01:10:20;;;;;;;1.70;1.60;;;;;;;;;;4978854;28;20511;-83
2022/08/31 01:12:47;;;;;;;1.65;1.30;;;;;;;;;;4981885;28;20489;-83
2022/08/31 01:15:14;;;;;;;1.58;1.48;;;;;;;;;;4975143;28;20515;-83
2022/08/31 01:17:40;;;;;;;1.40;1.30;;;;;;;;;;4983086;28;20142;-84
2022/08/31 01:20:19;;;;;;;1.45;1.20;;;;;;;;;;4976518;28;20043;-83
2022/08/31 01:23:07;;;;;;;1.55;1.38;;;;;;;;;;4994932;28;20101;-83
2022/08/31 01:25:35;;;;;;;1.63;1.45;;;;;;;;;;4985476;28;20097;-84
2022/08/31 01:28:03;;;;;;;3.40;1.73;;;;;;;;;;4995133;28;20039;-83
2022/08/31 01:30:29;;;;;;;1.92;1.48;;;;;;;;;;4995855;28;20050;-83
2022/08/31 01:32:55;;;;;;;2.67;1.50;;;;;;;;;;4978543;28;20047;-84
2022/08/31 01:35:21;;;;;;;1.55;1.45;;;;;;;;;;4977210;28;20542;-84
2022/08/31 01:37:47;;;;;;;1.77;1.63;;;;;;;;;;4973747;28;20530;-84
2022/08/31 01:40:13;;;;;;;1.38;1.10;;;;;;;;;;4974869;28;20121;-84
2022/08/31 01:42:39;;;;;;;1.52;1.33;;;;;;;;;;4990095;28;20121;-83
2022/08/31 01:45:06;;;;;;;3.85;1.50;;;;;;;;;;4974868;28;20046;-83
2022/08/31 01:47:32;;;;;;;2.00;1.40;;;;;;;;;;4973680;28;20412;-83
2022/08/31 01:49:58;;;;;;;2.35;1.60;;;;;;;;;;4974809;28;20489;-83
2022/08/31 01:52:26;;;;;;;2.22;2.00;;;;;;;;;;5003664;28;20042;-83
2022/08/31 01:54:52;;;;;;;2.55;1.70;;;;;;;;;;4974270;28;20527;-83
2022/08/31 01:57:18;;;;;;;3.63;1.90;;;;;;;;;;4973004;28;20412;-83
2022/08/31 01:59:44;;;;;;;1.65;1.55;;;;;;;;;;4974326;28;20102;-83
2022/08/31 02:02:10;;;;;;;2.60;1.55;;;;;;;;;;4973229;28;20051;-83
2022/08/31 02:04:36;;;;;;;1.98;1.77;;;;;;;;;;4958076;28;20054;-84
2022/08/31 02:07:02;;;;;;;3.10;1.67;;;;;;;;;;4960188;28;20051;-84
2022/08/31 02:09:29;;;;;;;2.17;1.40;;;;;;;;;;4960954;28;20043;-83
2022/08/31 02:11:55;;;;;;;2.50;1.50;;;;;;;;;;4960915;28;20082;-83
2022/08/31 02:14:22;;;;;;;2.42;1.63;;;;;;;;;;4978473;28;20058;-83
2022/08/31 02:16:48;;;;;;;2.30;1.70;;;;;;;;;;4996600;28;20039;-83
2022/08/31 02:19:14;;;;;;;1.88;1.70;;;;;;;;;;4991399;28;20051;-83
2022/08/31 02:21:40;;;;;;;1.60;1.50;;;;;;;;;;4982126;28;20046;-83
2022/08/31 02:24:07;;;;;;;2.72;1.75;;;;;;;;;;4982152;28;20225;-83
2022/08/31 02:26:34;;;;;;;2.47;1.88;;;;;;;;;;4996415;28;20049;-83
2022/08/31 02:29:01;;;;;;;2.22;1.45;;;;;;;;;;4989460;28;20058;-83
2022/08/31 02:31:27;;;;;;;2.03;1.60;;;;;;;;;;4989348;28;20050;-83
2022/08/31 02:33:54;;;;;;;2.15;1.40;;;;;;;;;;4997243;28;20054;-83
2022/08/31 02:36:20;;;;;;;1.88;1.40;;;;;;;;;;4990575;28;20135;-83
2022/08/31 02:38:46;;;;;;;1.40;1.30;;;;;;;;;;4997194;28;20102;-83
2022/08/31 02:41:12;;;;;;;2.13;1.50;;;;;;;;;;4993325;28;20464;-84
2022/08/31 02:43:38;;;;;;;1.73;1.33;;;;;;;;;;4996794;28;20046;-83
2022/08/31 02:46:04;;;;;;;1.65;1.55;;;;;;;;;;4997201;28;20078;-83
2022/08/31 02:48:30;;;;;;;2.47;1.48;;;;;;;;;;4977787;28;20126;-83
2022/08/31 02:51:02;;;;;;;1.60;1.50;;;;;;;;;;4976372;28;20047;-83
2022/08/31 02:53:28;;;;;;;1.58;1.48;;;;;;;;;;4963087;28;20059;-84
2022/08/31 02:55:54;;;;;;;1.45;1.30;;;;;;;;;;4960581;28;20053;-84
2022/08/31 02:58:20;;;;;;;2.50;1.45;;;;;;;;;;4983218;28;20104;-83
2022/08/31 03:00:47;;;;;;;1.30;1.20;;;;;;;;;;4996345;28;20057;-83
2022/08/31 03:03:13;;;;;;;1.52;1.40;;;;;;;;;;4973015;28;20050;-83
2022/08/31 03:05:39;;;;;;;1.52;1.40;;;;;;;;;;4976038;28;20043;-83
2022/08/31 03:08:06;;;;;;;1.60;1.50;;;;;;;;;;4975872;28;20484;-83
2022/08/31 03:10:32;;;;;;;1.38;1.13;;;;;;;;;;4976962;28;20465;-83
2022/08/31 03:12:58;;;;;;;1.88;1.40;;;;;;;;;;4975868;28;20057;-84
2022/08/31 03:15:25;;;;;;;1.85;1.58;;;;;;;;;;4994087;28;20053;-83
2022/08/31 03:17:51;;;;;;;1.95;1.40;;;;;;;;;;4978414;28;20053;-83
2022/08/31 03:20:19;;;;;;;1.88;1.67;;;;;;;;;;4979099;28;20039;-83
2022/08/31 03:22:45;;;;;;;1.90;1.60;;;;;;;;;;4977761;28;20070;-84
2022/08/31 03:25:11;;;;;;;2.00;1.50;;;;;;;;;;4994552;28;20046;-84
2022/08/31 03:27:38;;;;;;;1.83;1.70;;;;;;;;;;4996191;28;20042;-84
2022/08/31 03:30:08;;;;;;;2.50;1.55;;;;;;;;;;4973792;28;20038;-84
2022/08/31 03:32:34;;;;;;;1.60;1.50;;;;;;;;;;5011696;28;20085;-84
2022/08/31 03:35:01;;;;;;;1.58;1.38;;;;;;;;;;5011938;28;20046;-84
2022/08/31 03:37:27;;;;;;;1.63;1.30;;;;;;;;;;5001496;28;20046;-84
2022/08/31 03:39:54;;;;;;;1.75;1.60;;;;;;;;;;4997011;28;20050;-83
2022/08/31 03:42:20;;;;;;;1.73;1.30;;;;;;;;;;4960889;28;20047;-83
2022/08/31 03:44:46;;;;;;;1.60;1.50;;;;;;;;;;4977476;28;20101;-83
2022/08/31 03:47:13;;;;;;;1.60;1.50;;;;;;;;;;4977931;28;20051;-84
2022/08/31 03:49:39;;;;;;;2.53;1.52;;;;;;;;;;4976369;28;20046;-84
2022/08/31 03:52:05;;;;;;;1.90;1.50;;;;;;;;;;4960027;28;20468;-83
2022/08/31 03:54:31;;;;;;;1.88;1.70;;;;;;;;;;4978544;28;20042;-83
2022/08/31 03:56:57;;;;;;;3.05;1.90;;;;;;;;;;4976858;28;20058;-83
2022/08/31 03:59:23;;;;;;;1.75;1.65;;;;;;;;;;4975197;28;20053;-83
2022/08/31 04:01:49;;;;;;;2.88;1.90;;;;;;;;;;4992786;28;20407;-83
2022/08/31 04:04:15;;;;;;;2.33;2.05;;;;;;;;;;4989508;28;20483;-83
2022/08/31 04:06:42;;;;;;;2.10;1.80;;;;;;;;;;4986187;28;20137;-83
2022/08/31 04:09:08;;;;;;;2.15;1.75;;;;;;;;;;4994050;28;20096;-84
2022/08/31 04:11:34;;;;;;;2.10;1.90;;;;;;;;;;4995639;28;20400;-83
2022/08/31 04:14:00;;;;;;;2.30;1.80;;;;;;;;;;4991558;28;20448;-83
2022/08/31 04:16:26;;;;;;;1.67;1.58;;;;;;;;;;4974913;28;20412;-83
2022/08/31 04:18:53;;;;;;;2.03;1.83;;;;;;;;;;4974612;28;20047;-83
2022/08/31 04:21:21;;;;;;;2.15;1.95;;;;;;;;;;4964810;28;20066;-84
2022/08/31 04:23:48;;;;;;;2.13;1.80;;;;;;;;;;4976100;28;20046;-83
2022/08/31 04:26:18;;;;;;;3.00;1.60;;;;;;;;;;4991074;28;20067;-84
2022/08/31 04:28:44;;;;;;;2.63;1.90;;;;;;;;;;4975025;28;20043;-83
2022/08/31 04:31:10;;;;;;;5.60;2.55;;;;;;;;;;4991603;28;20514;-83
2022/08/31 04:33:37;;;;;;;2.33;2.00;;;;;;;;;;4995131;28;20570;-84
2022/08/31 04:36:11;;;;;;;2.40;1.95;;;;;;;;;;4974389;28;20519;-83
2022/08/31 04:38:37;;;;;;;2.60;2.00;;;;;;;;;;4975531;28;20424;-83
2022/08/31 04:41:08;;;;;;;2.13;1.95;;;;;;;;;;4983657;28;20046;-83
2022/08/31 04:43:35;;;;;;;2.65;2.10;;;;;;;;;;4994109;28;20050;-83
2022/08/31 04:46:02;;;;;;;2.22;1.95;;;;;;;;;;4966643;28;20070;-83
2022/08/31 04:48:28;;;;;;;2.90;2.38;;;;;;;;;;4975450;28;20074;-83
2022/08/31 04:51:05;;;;;;;3.17;2.13;;;;;;;;;;4965429;28;20058;-83
2022/08/31 04:53:31;;;;;;;3.17;2.30;;;;;;;;;;4994965;28;20046;-83
2022/08/31 04:55:57;;;;;;;3.47;2.20;;;;;;;;;;4988337;28;20042;-83
2022/08/31 04:58:23;;;;;;;3.67;2.30;;;;;;;;;;4975508;28;20042;-83
2022/08/31 05:00:52;;;;;;;2.20;2.00;;;;;;;;;;4975043;28;20054;-83
2022/08/31 05:03:19;;;;;;;2.25;2.00;;;;;;;;;;4973690;28;20046;-83
2022/08/31 05:05:51;;;;;;;2.42;2.20;;;;;;;;;;4981343;28;20496;-84
2022/08/31 05:08:17;;;;;;;2.20;2.00;;;;;;;;;;4975058;28;20082;-83
2022/08/31 05:10:43;;;;;;;2.33;2.10;;;;;;;;;;4957876;28;20046;-83
2022/08/31 05:13:09;;;;;;;2.92;2.30;;;;;;;;;;4987010;28;20054;-83
2022/08/31 05:15:39;;;;;;;2.70;2.10;;;;;;;;;;4973640;28;20062;-83
2022/08/31 05:18:05;;;;;;;2.50;2.20;;;;;;;;;;4974900;28;20051;-83
2022/08/31 05:20:31;;;;;;;2.78;2.35;;;;;;;;;;4981860;28;20054;-84
2022/08/31 05:22:58;;;;;;;3.50;2.38;;;;;;;;;;4981900;28;20147;-84
2022/08/31 05:25:24;;;;;;;3.08;2.67;;;;;;;;;;4989519;28;20039;-83
2022/08/31 05:27:52;;;;;;;3.47;2.88;;;;;;;;;;4973386;28;20043;-84
2022/08/31 05:30:18;;;;;;;5.60;2.47;;;;;;;;;;4979547;28;20555;-83
2022/08/31 05:32:44;;;;;;;2.72;2.40;;;;;;;;;;4991143;28;20051;-84
2022/08/31 05:35:10;;;;;;;3.92;2.63;;;;;;;;;;4975346;28;20072;-84
2022/08/31 05:37:36;;;;;;;2.63;2.20;;;;;;;;;;4985888;28;20050;-83
2022/08/31 05:40:03;;;;;;;3.20;2.40;;;;;;;;;;4973489;28;20047;-84
2022/08/31 05:42:29;;;;;;;2.63;2.20;;;;;;;;;;4992092;28;20050;-84
2022/08/31 05:44:55;;;;;;;5.15;2.33;;;;;;;;;;4976607;28;20051;-84
2022/08/31 05:47:21;;;;;;;3.40;2.70;;;;;;;;;;4992908;28;20089;-84
2022/08/31 05:49:47;;;;;;;3.65;2.80;;;;;;;;;;5007509;28;20043;-83
2022/08/31 05:52:13;;;;;;;3.55;2.30;;;;;;;;;;4974836;28;20042;-83
2022/08/31 05:54:39;;;;;;;4.53;2.47;;;;;;;;;;4974828;28;20046;-84
2022/08/31 05:57:05;;;;;;;3.25;2.50;;;;;;;;;;4976887;28;20069;-82
2022/08/31 05:59:32;;;;;;;3.53;2.60;;;;;;;;;;4992962;28;20049;-83
2022/08/31 06:01:58;;;;;;;3.70;2.60;;;;;;;;;;4987158;28;20088;-82
2022/08/31 06:04:25;;;;;;;4.03;2.60;;;;;;;;;;4974701;28;20053;-83
2022/08/31 06:06:51;;;;;;;3.45;2.78;;;;;;;;;;4986203;28;20452;-83
2022/08/31 06:09:17;;;;;;;4.18;2.60;;;;;;;;;;4992691;28;20047;-84
2022/08/31 06:11:43;;;;;;;3.08;2.28;;;;;;;;;;4992466;28;20078;-82
2022/08/31 06:14:09;;;;;;;4.15;3.00;;;;;;;;;;5006388;28;20174;-84
2022/08/31 06:16:37;;;;;;;4.57;2.80;;;;;;;;;;4981891;28;20053;-84
2022/08/31 06:19:05;;;;;;;3.53;2.60;;;;;;;;;;4994173;28;20054;-84
2022/08/31 06:21:33;;;;;;;3.67;2.53;;;;;;;;;;4975359;28;20105;-85
2022/08/31 06:24:00;;;;;;;3.38;2.20;;;;;;;;;;4974195;28;20484;-85
2022/08/31 06:26:27;;;;;;;3.60;2.38;;;;;;;;;;4973282;28;20039;-85
2022/08/31 06:28:54;;;;;;;2.55;2.00;;;;;;;;;;4989294;28;20046;-86
2022/08/31 06:31:28;;;;;;;4.60;2.40;;;;;;;;;;4990969;28;20615;-85
2022/08/31 06:33:54;;;;;;;2.72;2.30;;;;;;;;;;4974272;28;20054;-86
2022/08/31 06:36:22;;;;;;;4.20;2.20;;;;;;;;;;4957297;28;20050;-85
2022/08/31 06:38:48;;;;;;;2.55;2.03;;;;;;;;;;4956761;28;20053;-85
2022/08/31 06:41:34;;;;;;;3.50;1.92;;;;;;;;;;4974238;28;20050;-86
2022/08/31 06:44:03;;;;;;;2.47;2.03;;;;;;;;;;4973523;28;20053;-85
2022/08/31 06:46:31;;;;;;;2.40;2.10;;;;;;;;;;4995340;28;20042;-84
2022/08/31 06:48:58;;;;;;;4.40;2.03;;;;;;;;;;4989544;28;20049;-86
2022/08/31 06:51:25;;;;;;;2.72;1.73;;;;;;;;;;4989853;28;20419;-85
2022/08/31 06:53:51;;;;;;;2.65;1.67;;;;;;;;;;4980116;28;20073;-85
2022/08/31 06:56:19;;;;;;;2.10;1.77;;;;;;;;;;4979938;28;20042;-85
2022/08/31 06:58:46;;;;;;;2.67;1.77;;;;;;;;;;4980251;28;20038;-85
2022/08/31 07:01:14;;;;;;;3.78;2.10;;;;;;;;;;4981064;28;20378;-85
2022/08/31 07:03:42;;;;;;;1.63;1.50;;;;;;;;;;4977484;28;20125;-84
2022/08/31 07:06:21;;;;;;;2.80;1.70;;;;;;;;;;4977200;28;20042;-85
2022/08/31 07:08:50;;;;;;;2.13;1.70;;;;;;;;;;4962214;28;20109;-85
2022/08/31 07:11:20;;;;;;;4.15;1.75;;;;;;;;;;4961494;28;20134;-86
2022/08/31 07:13:47;;;;;;;3.33;1.70;;;;;;;;;;4976747;28;20054;-86
2022/08/31 07:16:14;;;;;;;3.13;1.67;;;;;;;;;;4982358;28;20393;-86
2022/08/31 07:18:45;;;;;;;2.67;1.80;;;;;;;;;;4977384;28;20047;-86
2022/08/31 07:21:13;;;;;;;3.38;1.73;;;;;;;;;;4982443;28;20514;-84
2022/08/31 07:23:40;;;;;;;3.28;1.70;;;;;;;;;;4978454;28;20098;-85
2022/08/31 07:26:09;;;;;;;1.73;1.40;;;;;;;;;;4963531;28;20043;-85
2022/08/31 07:28:37;;;;;;;3.00;1.70;;;;;;;;;;4983680;28;20039;-86
2022/08/31 07:31:04;;;;;;;3.65;1.80;;;;;;;;;;4977418;28;20109;-85
2022/08/31 07:33:36;;;;;;;2.35;1.60;;;;;;;;;;4976867;28;20047;-84
2022/08/31 07:36:13;;;;;;;2.72;1.73;;;;;;;;;;4990217;28;20140;-85
2022/08/31 07:44:21;;;;;;;3.58;1.77;;;;;;;;;;4992893;28;20051;-87
2022/08/31 07:46:48;;;;;;;4.97;2.15;;;;;;;;;;4976675;28;20041;-85
2022/08/31 07:49:17;;;;;;;1.92;1.60;;;;;;;;;;4992982;28;20133;-87
2022/08/31 07:51:49;;;;;;;2.53;1.48;;;;;;;;;;5006648;28;20066;-86
2022/08/31 07:54:17;;;;;;;3.30;1.60;;;;;;;;;;4977618;28;20444;-87
2022/08/31 07:57:17;;;;;;;2.90;1.55;;;;;;;;;;4963919;28;20059;-88
2022/08/31 07:59:54;;;;;;;1.70;1.50;;;;;;;;;;4956253;28;20485;-84
2022/08/31 08:02:23;;;;;;;3.75;1.50;;;;;;;;;;4925422;28;20051;-85
2022/08/31 08:04:54;;;;;;;1.33;1.23;;;;;;;;;;4959552;28;20047;-85
2022/08/31 08:07:23;;;;;;;2.63;1.40;;;;;;;;;;4956266;28;20110;-85
2022/08/31 08:09:58;;;;;;;1.80;1.30;;;;;;;;;;4941887;29;20055;-85
2022/08/31 08:12:27;;;;;;;3.22;1.80;;;;;;;;;;4959726;28;20077;-86
2022/08/31 08:14:56;;;;;;;1.90;1.40;;;;;;;;;;4956279;28;20091;-85
2022/08/31 08:17:22;;;;;;;2.25;1.40;;;;;;;;;;4977300;28;20146;-85
2022/08/31 08:19:49;;;;;;;2.58;1.30;;;;;;;;;;4960757;28;20053;-86
2022/08/31 08:22:15;;;;;;;1.52;1.42;;;;;;;;;;4975718;28;20070;-86
2022/08/31 08:24:45;;;;;;;1.50;1.40;;;;;;;;;;4972518;28;20117;-84
2022/08/31 08:27:15;;;;;;;1.90;1.40;;;;;;;;;;4974472;28;20057;-86
2022/08/31 08:29:57;;;;;;;3.83;1.75;;;;;;;;;;4990894;28;20130;-86
2022/08/31 08:32:27;;;;;;;2.30;1.27;;;;;;;;;;4970363;28;20054;-85
2022/08/31 08:35:08;;;;;;;1.80;1.25;;;;;;;;;;4993020;28;20038;-86
2022/08/31 08:37:59;;;;;;;1.98;1.33;;;;;;;;;;4975491;28;20046;-86
2022/08/31 08:40:53;;;;;;;2.20;1.35;;;;;;;;;;4985142;28;20042;-86
2022/08/31 08:43:33;;;;;;;1.40;1.13;;;;;;;;;;4980456;28;20523;-85
2022/08/31 08:46:01;;;;;;;2.75;1.40;;;;;;;;;;4993652;28;20042;-85
2022/08/31 08:48:29;;;;;;;1.42;1.15;;;;;;;;;;4976779;28;20085;-85
2022/08/31 08:50:56;;;;;;;1.45;1.15;;;;;;;;;;4993209;28;20134;-85
2022/08/31 08:53:24;;;;;;;1.50;1.40;;;;;;;;;;4975720;28;20051;-85
2022/08/31 08:55:50;;;;;;;1.42;1.30;;;;;;;;;;4975080;28;20096;-85
2022/08/31 08:58:18;;;;;;;2.22;1.20;;;;;;;;;;4974947;28;20039;-85
2022/08/31 09:00:48;;;;;;;1.30;1.15;;;;;;;;;;4958943;28;20050;-85
2022/08/31 09:03:20;;;;;;;2.30;1.15;;;;;;;;;;4976037;28;20093;-85
2022/08/31 09:06:05;;;;;;;2.88;1.40;;;;;;;;;;4971989;28;20486;-85
2022/08/31 09:08:31;;;;;;;1.50;1.40;;;;;;;;;;4995527;28;20039;-85
2022/08/31 09:11:08;;;;;;;2.50;1.40;;;;;;;;;;4972978;28;20051;-85
2022/08/31 09:13:36;;;;;;;1.60;1.30;;;;;;;;;;4977368;28;20055;-85
2022/08/31 09:16:04;;;;;;;3.08;1.90;;;;;;;;;;4994108;28;20562;-86
2022/08/31 09:18:36;;;;;;;2.72;1.40;;;;;;;;;;4984733;28;20051;-85
2022/08/31 09:21:20;;;;;;;1.83;1.20;;;;;;;;;;4978060;28;20507;-85
2022/08/31 09:24:03;;;;;;;1.27;1.17;;;;;;;;;;4989161;28;20050;-86
2022/08/31 09:26:32;;;;;;;2.45;1.75;;;;;;;;;;4972645;28;20047;-84
2022/08/31 09:29:02;;;;;;;1.60;1.23;;;;;;;;;;4992919;28;20049;-85
2022/08/31 09:31:36;;;;;;;1.27;1.15;;;;;;;;;;4966634;28;20091;-84
2022/08/31 09:34:03;;;;;;;2.53;1.50;;;;;;;;;;4966217;28;20054;-84
2022/08/31 09:36:32;;;;;;;2.05;1.58;;;;;;;;;;4993629;28;20042;-85
2022/08/31 09:39:12;;;;;;;2.65;1.30;;;;;;;;;;4993335;28;20042;-86
2022/08/31 09:41:38;;;;;;;2.17;1.40;;;;;;;;;;4979708;28;20110;-87
2022/08/31 09:44:23;;;;;;;3.85;1.60;;;;;;;;;;5004742;28;20057;-86
2022/08/31 09:46:52;;;;;;;1.63;1.20;;;;;;;;;;4995605;28;20043;-87
2022/08/31 09:49:29;;;;;;;3.38;1.30;;;;;;;;;;4993369;28;20059;-86
2022/08/31 09:52:13;;;;;;;1.63;1.27;;;;;;;;;;4987076;28;20066;-87
2022/08/31 09:57:41;;;;;;;1.60;1.20;;;;;;;;;;4991155;28;20050;-83
2022/08/31 10:00:13;;;;;;;1.58;1.05;;;;;;;;;;4988564;28;20393;-87
2022/08/31 10:02:39;;;;;;;1.33;1.08;;;;;;;;;;4981270;28;20054;-87
2022/08/31 10:05:06;;;;;;;2.15;1.25;;;;;;;;;;5000629;28;20115;-87
2022/08/31 10:07:33;;;;;;;3.25;1.40;;;;;;;;;;4994851;28;20039;-87
2022/08/31 10:10:04;;;;;;;1.73;1.40;;;;;;;;;;4996718;28;20077;-88
2022/08/31 10:12:36;;;;;;;2.22;1.23;;;;;;;;;;4999524;28;20121;-87
2022/08/31 10:15:12;;;;;;;2.50;1.27;;;;;;;;;;4964754;28;20385;-87
2022/08/31 10:17:41;;;;;;;1.50;1.40;;;;;;;;;;4981749;28;20053;-86
2022/08/31 10:20:15;;;;;;;3.28;1.70;;;;;;;;;;4980319;28;20125;-87
2022/08/31 10:22:43;;;;;;;2.10;1.40;;;;;;;;;;4995792;28;20050;-89
2022/08/31 10:25:17;;;;;;;2.08;1.30;;;;;;;;;;4997531;28;20050;-86
2022/08/31 10:27:49;;;;;;;3.17;1.60;;;;;;;;;;4996791;28;20105;-86
2022/08/31 10:30:21;;;;;;;1.67;1.27;;;;;;;;;;4997407;28;20078;-88
2022/08/31 10:33:06;;;;;;;1.50;1.33;;;;;;;;;;4997739;28;20594;-88
2022/08/31 10:35:44;;;;;;;2.65;1.42;;;;;;;;;;4982473;28;20046;-89
2022/08/31 10:38:25;;;;;;;2.28;1.40;;;;;;;;;;4984017;28;20043;-90
2022/08/31 10:40:59;;;;;;;4.10;1.67;;;;;;;;;;4970911;28;20077;-89
2022/08/31 10:43:29;;;;;;;2.47;1.50;;;;;;;;;;5002739;28;20050;-90
2022/08/31 10:45:56;;;;;;;1.52;1.35;;;;;;;;;;4988926;28;20050;-90
2022/08/31 10:48:26;;;;;;;2.53;1.45;;;;;;;;;;4990690;28;20125;-89
2022/08/31 10:51:18;;;;;;;2.83;1.58;;;;;;;;;;5005426;28;20042;-90
2022/08/31 10:53:51;;;;;;;4.35;1.40;;;;;;;;;;4987506;28;20514;-91
2022/08/31 10:56:24;;;;;;;1.50;1.25;;;;;;;;;;5003056;28;20042;-89
2022/08/31 10:59:02;;;;;;;4.88;1.48;;;;;;;;;;4977869;28;20092;-89
2022/08/31 11:01:41;;;;;;;2.15;1.27;;;;;;;;;;4966149;28;20051;-90
2022/08/31 11:04:07;;;;;;;;;;;;;;;;;;4999069;28;20158;-91
2022/08/31 11:09:31;;;;;;;2.95;1.30;;;;;;;;;;4982144;28;19928;-87
2022/08/31 11:12:06;;;;;;;2.00;1.20;;;;;;;;;;5010791;28;20050;-86
2022/08/31 11:14:35;;;;;;;2.25;1.70;;;;;;;;;;4990094;28;20487;-91
2022/08/31 11:17:07;;;;;;;2.25;1.30;;;;;;;;;;4999491;28;20038;-89
2022/08/31 11:19:39;;;;;;;3.45;1.40;;;;;;;;;;4977061;28;20108;-89
2022/08/31 11:22:37;;;;;;;2.35;1.20;;;;;;;;;;5004006;28;20030;-89
2022/08/31 11:25:30;;;;;;;2.42;1.40;;;;;;;;;;4989661;28;20073;-88
2022/08/31 11:28:17;;;;;;;1.38;1.27;;;;;;;;;;4963921;28;20077;-90
2022/08/31 11:30:47;;;;;;;1.98;1.30;;;;;;;;;;4977428;28;20047;-86
2022/08/31 11:33:22;;;;;;;4.03;1.90;;;;;;;;;;4961128;28;20506;-86
2022/08/31 11:35:48;;;;;;;2.13;1.30;;;;;;;;;;4976169;28;20126;-88
2022/08/31 11:38:35;;;;;;;3.53;1.45;;;;;;;;;;4959659;28;20062;-87
2022/08/31 11:41:02;;;;;;;3.08;1.48;;;;;;;;;;4965282;28;20055;-88
2022/08/31 11:43:31;;;;;;;1.65;1.40;;;;;;;;;;4964126;28;20050;-90
2022/08/31 11:46:16;;;;;;;1.80;1.40;;;;;;;;;;4980882;28;20106;-87
2022/08/31 11:48:52;;;;;;;1.98;1.35;;;;;;;;;;5000495;28;20082;-89
2022/08/31 11:51:18;;;;;;;;;;;;;;;;;;5000338;28;20167;-89
2022/08/31 11:53:48;;;;;;;2.80;1.55;;;;;;;;;;4992756;28;19926;-89
2022/08/31 11:56:31;;;;;;;2.00;1.52;;;;;;;;;;4984583;28;20043;-91
2022/08/31 11:59:16;;;;;;;1.80;1.30;;;;;;;;;;4983414;28;20515;-88
2022/08/31 12:01:43;;;;;;;2.13;1.70;;;;;;;;;;4997126;28;20622;-90
2022/08/31 12:04:46;;;;;;;2.92;1.70;;;;;;;;;;4988711;28;20077;-89
2022/08/31 12:07:32;;;;;;;2.58;1.58;;;;;;;;;;4964920;28;20101;-88
2022/08/31 12:10:07;;;;;;;2.15;1.50;;;;;;;;;;4964367;28;20051;-88
2022/08/31 12:12:53;;;;;;;3.17;1.40;;;;;;;;;;5008178;28;20027;-89
2022/08/31 12:15:22;;;;;;;;;;;;;;;;;;4988911;28;20050;-92
2022/08/31 12:18:18;;;;;;;2.03;1.40;;;;;;;;;;4982278;28;19928;-91
2022/08/31 12:23:36;;;;;;;2.10;1.17;;;;;;;;;;4997239;28;19931;-88
2022/08/31 12:26:03;;;;;;;2.80;1.55;;;;;;;;;;4979067;28;20124;-88
2022/08/31 12:28:37;;;;;;;5.45;1.77;;;;;;;;;;4987668;28;20492;-88
2022/08/31 12:31:12;;;;;;;3.78;1.60;;;;;;;;;;4994452;28;20047;-89
2022/08/31 12:34:14;;;;;;;2.00;1.40;;;;;;;;;;4979086;28;20495;-87
2022/08/31 12:37:18;;;;;;;3.63;1.60;;;;;;;;;;4977542;28;20061;-89
2022/08/31 12:40:05;;;;;;;2.35;1.48;;;;;;;;;;4902012;29;20051;-89
2022/08/31 12:42:35;;;;;;;3.05;1.50;;;;;;;;;;4896336;29;20061;-88
2022/08/31 12:45:02;;;;;;;3.03;1.42;;;;;;;;;;4866894;29;20040;-88
2022/08/31 12:47:47;;;;;;;3.20;1.60;;;;;;;;;;4882356;29;20049;-90
2022/08/31 12:50:30;;;;;;;2.50;1.50;;;;;;;;;;4881637;29;20049;-89
2022/08/31 12:53:28;;;;;;;6.03;2.35;;;;;;;;;;4866671;29;20060;-89
2022/08/31 12:56:00;;;;;;;3.58;1.58;;;;;;;;;;4868134;29;20060;-86
2022/08/31 12:58:49;;;;;;;3.88;1.42;;;;;;;;;;4894565;29;20044;-91
2022/08/31 13:01:38;;;;;;;2.55;1.60;;;;;;;;;;4887483;29;20056;-91
2022/08/31 13:08:01;;;;;;;4.18;1.42;;;;;;;;;;4908208;29;20064;-92
2022/08/31 13:10:48;;;;;;;;;;;;;;;;;;;;;
2022/08/31 13:17:28;;;;;;;3.13;1.40;;;;;;;;;;4949670;28;20046;-91
2022/08/31 13:27:04;;;;;;;2.70;1.40;;;;;;;;;;4956652;28;20547;-86
2022/08/31 13:29:45;;;;;;;2.47;1.20;;;;;;;;;;4940339;29;20490;-87
2022/08/31 13:32:13;;;;;;;2.97;1.60;;;;;;;;;;4938138;29;20043;-87
2022/08/31 13:34:46;;;;;;;3.83;1.60;;;;;;;;;;4922013;29;20055;-85
2022/08/31 13:37:22;;;;;;;2.83;1.50;;;;;;;;;;4930473;28;20102;-87
2022/08/31 13:39:48;;;;;;;5.90;3.17;;;;;;;;;;4955017;28;20558;-84
2022/08/31 13:42:27;;;;;;;4.13;1.42;;;;;;;;;;4941879;28;20053;-86
2022/08/31 13:44:55;;;;;;;2.90;1.23;;;;;;;;;;4932306;28;20051;-86
2022/08/31 13:47:26;;;;;;;3.63;1.60;;;;;;;;;;4942923;28;20512;-85
2022/08/31 13:50:02;;;;;;;3.33;1.52;;;;;;;;;;4930151;28;20134;-87
2022/08/31 13:52:29;;;;;;;1.73;1.40;;;;;;;;;;4929736;28;20044;-88
2022/08/31 13:55:06;;;;;;;4.07;1.90;;;;;;;;;;4948301;28;20054;-88
2022/08/31 13:57:34;;;;;;;2.97;1.23;;;;;;;;;;4979639;28;20057;-89
2022/08/31 14:00:19;;;;;;;3.78;1.70;;;;;;;;;;4945314;28;20058;-91
2022/08/31 14:02:45;;;;;;;3.75;1.70;;;;;;;;;;4983969;28;20050;-89
2022/08/31 14:05:35;;;;;;;3.45;1.70;;;;;;;;;;4985938;28;20087;-88
2022/08/31 14:08:08;;;;;;;2.70;1.58;;;;;;;;;;4967737;28;20058;-88
2022/08/31 14:13:37;;;;;;;1.70;1.50;;;;;;;;;;5003350;28;20369;-91
2022/08/31 14:16:08;;;;;;;1.67;1.58;;;;;;;;;;4982487;28;20050;-89
2022/08/31 14:18:43;;;;;;;3.38;1.98;;;;;;;;;;4983882;28;20066;-89
2022/08/31 14:21:10;;;;;;;;;;;;;;;;;;4976033;28;20046;-90
2022/08/31 14:23:50;;;;;;;4.28;1.70;;;;;;;;;;5003527;28;19960;-89
2022/08/31 14:26:20;;;;;;;3.45;1.52;;;;;;;;;;4995508;28;20389;-89
2022/08/31 14:28:52;;;;;;;5.80;1.60;;;;;;;;;;4985034;28;20066;-88
2022/08/31 14:31:38;;;;;;;4.20;1.70;;;;;;;;;;4964690;28;20082;-90
2022/08/31 14:34:23;;;;;;;2.17;1.52;;;;;;;;;;4965250;28;20082;-90
2022/08/31 14:36:54;;;;;;;1.73;1.38;;;;;;;;;;4966579;28;20046;-89
2022/08/31 14:39:23;;;;;;;4.00;1.70;;;;;;;;;;4982205;28;20106;-89
2022/08/31 14:41:51;;;;;;;1.80;1.48;;;;;;;;;;4981596;28;20042;-90
2022/08/31 14:44:19;;;;;;;3.88;1.60;;;;;;;;;;4967058;28;20131;-87
2022/08/31 14:47:13;;;;;;;5.82;2.00;;;;;;;;;;4973365;28;20039;-89
2022/08/31 14:50:08;;;;;;;5.55;1.73;;;;;;;;;;4971812;28;20062;-88
2022/08/31 14:52:53;;;;;;;;;;;;;;;;;;;;;
2022/08/31 14:55:41;;;;;;;4.57;1.60;;;;;;;;;;4994804;28;20047;-90
2022/08/31 14:58:12;;;;;;;7.88;1.80;;;;;;;;;;4981764;28;20100;-86
2022/08/31 15:00:47;;;;;;;4.32;2.25;;;;;;;;;;4973690;28;20082;-88
2022/08/31 15:03:13;;;;;;;2.47;1.42;;;;;;;;;;4991160;28;20082;-87
2022/08/31 15:05:47;;;;;;;5.32;1.90;;;;;;;;;;4998347;28;20047;-88
2022/08/31 15:08:20;;;;;;;3.70;1.80;;;;;;;;;;4990945;28;20062;-88
2022/08/31 15:10:46;;;;;;;3.75;1.90;;;;;;;;;;4976547;28;20054;-89
2022/08/31 15:13:13;;;;;;;3.28;2.08;;;;;;;;;;4965784;28;20053;-88
2022/08/31 15:15:39;;;;;;;1.98;1.50;;;;;;;;;;4989889;28;20060;-88
2022/08/31 15:18:08;;;;;;;3.75;1.80;;;;;;;;;;4972929;28;20039;-88
2022/08/31 15:20:41;;;;;;;1.52;1.42;;;;;;;;;;4991191;28;20384;-88
2022/08/31 15:23:08;;;;;;;5.20;1.73;;;;;;;;;;4989462;28;20023;-87
2022/08/31 15:25:35;;;;;;;3.58;1.90;;;;;;;;;;4995064;28;20078;-87
2022/08/31 15:28:10;;;;;;;4.93;1.80;;;;;;;;;;4990106;28;20054;-86
2022/08/31 15:30:42;;;;;;;2.25;1.50;;;;;;;;;;4991594;28;20047;-89
2022/08/31 15:33:08;;;;;;;3.65;1.60;;;;;;;;;;4978282;28;20062;-86
2022/08/31 15:35:43;;;;;;;1.67;1.42;;;;;;;;;;4977884;28;20108;-88
2022/08/31 15:38:10;;;;;;;3.25;1.70;;;;;;;;;;4988978;28;20105;-90
2022/08/31 15:40:38;;;;;;;3.60;2.03;;;;;;;;;;5001799;28;20101;-87
2022/08/31 15:43:14;;;;;;;4.70;1.83;;;;;;;;;;4981843;28;20050;-90